sensor_id;sensor_type;location;lat;lon;timestamp;temperature;humidity
2907;DHT22;1463;51.070;16.998;2024-01-07T00:00:23;0.00;99.90
2907;DHT22;1463;51.070;16.998;2024-01-07T00:02:50;0.10;99.90
2907;DHT22;1463;51.070;16.998;2024-01-07T00:05:19;0.00;99.90
2907;DHT22;1463;51.070;16.998;2024-01-07T00:07:50;0.00;99.90
2907;DHT22;1463;51.070;16.998;2024-01-07T00:10:19;-0.10;99.90
2907;DHT22;1463;51.070;16.998;2024-01-07T00:12:45;0.00;99.90
2907;DHT22;1463;51.070;16.998;2024-01-07T00:15:13;0.00;99.90
2907;DHT22;1463;51.070;16.998;2024-01-07T00:17:40;0.00;99.90
2907;DHT22;1463;51.070;16.998;2024-01-07T00:20:07;0.00;99.90
2907;DHT22;1463;51.070;16.998;2024-01-07T00:22:37;-0.10;99.90
2907;DHT22;1463;51.070;16.998;2024-01-07T00:25:05;0.00;99.90
2907;DHT22;1463;51.070;16.998;2024-01-07T00:27:32;0.10;99.90
2907;DHT22;1463;51.070;16.998;2024-01-07T00:29:58;0.00;99.90
2907;DHT22;1463;51.070;16.998;2024-01-07T00:32:25;0.00;99.90
2907;DHT22;1463;51.070;16.998;2024-01-07T00:34:52;0.00;99.90
2907;DHT22;1463;51.070;16.998;2024-01-07T00:37:19;0.00;99.90
2907;DHT22;1463;51.070;16.998;2024-01-07T00:39:45;0.00;99.90
2907;DHT22;1463;51.070;16.998;2024-01-07T00:42:13;-0.30;99.90
2907;DHT22;1463;51.070;16.998;2024-01-07T00:44:40;-0.20;99.90
2907;DHT22;1463;51.070;16.998;2024-01-07T00:47:07;-0.30;99.90
2907;DHT22;1463;51.070;16.998;2024-01-07T00:49:33;-0.40;99.90
2907;DHT22;1463;51.070;16.998;2024-01-07T00:52:00;-0.30;99.90
2907;DHT22;1463;51.070;16.998;2024-01-07T00:54:27;-0.30;99.90
2907;DHT22;1463;51.070;16.998;2024-01-07T00:56:53;-0.30;99.90
2907;DHT22;1463;51.070;16.998;2024-01-07T00:59:21;-0.40;99.90
2907;DHT22;1463;51.070;16.998;2024-01-07T01:01:48;-0.30;99.90
2907;DHT22;1463;51.070;16.998;2024-01-07T01:04:14;-0.30;99.90
2907;DHT22;1463;51.070;16.998;2024-01-07T01:06:42;-0.30;99.90
2907;DHT22;1463;51.070;16.998;2024-01-07T01:09:09;-0.30;99.90
2907;DHT22;1463;51.070;16.998;2024-01-07T01:11:35;-0.30;99.90
2907;DHT22;1463;51.070;16.998;2024-01-07T01:14:02;-0.20;99.90
2907;DHT22;1463;51.070;16.998;2024-01-07T01:16:30;-0.20;99.90
2907;DHT22;1463;51.070;16.998;2024-01-07T01:18:57;-0.30;99.90
2907;DHT22;1463;51.070;16.998;2024-01-07T01:21:23;-0.20;99.90
2907;DHT22;1463;51.070;16.998;2024-01-07T01:23:50;-0.20;99.90
2907;DHT22;1463;51.070;16.998;2024-01-07T01:26:17;-0.20;99.90
2907;DHT22;1463;51.070;16.998;2024-01-07T01:28:43;-0.20;99.90
2907;DHT22;1463;51.070;16.998;2024-01-07T01:31:13;-0.20;99.90
2907;DHT22;1463;51.070;16.998;2024-01-07T01:33:41;-0.30;99.90
2907;DHT22;1463;51.070;16.998;2024-01-07T01:36:08;-0.30;99.90
2907;DHT22;1463;51.070;16.998;2024-01-07T01:38:35;-0.40;99.90
2907;DHT22;1463;51.070;16.998;2024-01-07T01:41:02;-0.50;99.90
2907;DHT22;1463;51.070;16.998;2024-01-07T01:43:29;-0.40;99.90
2907;DHT22;1463;51.070;16.998;2024-01-07T01:45:56;-0.40;99.90
2907;DHT22;1463;51.070;16.998;2024-01-07T01:48:24;-0.40;99.90
2907;DHT22;1463;51.070;16.998;2024-01-07T01:50:53;-0.30;99.90
2907;DHT22;1463;51.070;16.998;2024-01-07T01:53:24;-0.30;99.90
2907;DHT22;1463;51.070;16.998;2024-01-07T01:55:50;-0.40;99.90
2907;DHT22;1463;51.070;16.998;2024-01-07T01:58:18;-0.40;99.90
2907;DHT22;1463;51.070;16.998;2024-01-07T02:00:45;-0.40;99.90
2907;DHT22;1463;51.070;16.998;2024-01-07T02:03:12;-0.30;99.90
2907;DHT22;1463;51.070;16.998;2024-01-07T02:05:38;-0.40;99.90
2907;DHT22;1463;51.070;16.998;2024-01-07T02:08:07;-0.40;99.90
2907;DHT22;1463;51.070;16.998;2024-01-07T02:10:34;-0.40;99.90
2907;DHT22;1463;51.070;16.998;2024-01-07T02:13:03;-0.40;99.90
2907;DHT22;1463;51.070;16.998;2024-01-07T02:15:30;-0.30;99.90
2907;DHT22;1463;51.070;16.998;2024-01-07T02:17:57;-0.40;99.90
2907;DHT22;1463;51.070;16.998;2024-01-07T02:20:26;-0.50;99.90
2907;DHT22;1463;51.070;16.998;2024-01-07T02:22:52;-0.50;99.90
2907;DHT22;1463;51.070;16.998;2024-01-07T02:25:21;-0.50;99.90
2907;DHT22;1463;51.070;16.998;2024-01-07T02:27:47;-0.60;99.90
2907;DHT22;1463;51.070;16.998;2024-01-07T02:30:17;-0.60;99.90
2907;DHT22;1463;51.070;16.998;2024-01-07T02:32:43;-0.60;99.90
2907;DHT22;1463;51.070;16.998;2024-01-07T02:35:10;-0.70;99.90
2907;DHT22;1463;51.070;16.998;2024-01-07T02:37:37;-0.50;99.90
2907;DHT22;1463;51.070;16.998;2024-01-07T02:40:07;-0.60;99.90
2907;DHT22;1463;51.070;16.998;2024-01-07T02:42:35;-0.50;99.90
2907;DHT22;1463;51.070;16.998;2024-01-07T02:45:02;-0.60;99.90
2907;DHT22;1463;51.070;16.998;2024-01-07T02:47:29;-0.60;99.90
2907;DHT22;1463;51.070;16.998;2024-01-07T02:49:56;-0.50;99.90
2907;DHT22;1463;51.070;16.998;2024-01-07T02:52:22;-0.50;99.90
2907;DHT22;1463;51.070;16.998;2024-01-07T02:54:49;-0.60;99.90
2907;DHT22;1463;51.070;16.998;2024-01-07T02:57:16;-0.60;99.90
2907;DHT22;1463;51.070;16.998;2024-01-07T02:59:44;-0.60;99.90
2907;DHT22;1463;51.070;16.998;2024-01-07T03:02:10;-0.70;99.90
2907;DHT22;1463;51.070;16.998;2024-01-07T03:04:37;-0.60;99.90
2907;DHT22;1463;51.070;16.998;2024-01-07T03:07:04;-0.60;99.90
2907;DHT22;1463;51.070;16.998;2024-01-07T03:09:30;-0.60;99.90
2907;DHT22;1463;51.070;16.998;2024-01-07T03:11:57;-0.60;99.90
2907;DHT22;1463;51.070;16.998;2024-01-07T03:14:24;-0.70;99.90
2907;DHT22;1463;51.070;16.998;2024-01-07T03:16:56;-0.80;99.90
2907;DHT22;1463;51.070;16.998;2024-01-07T03:19:22;-0.80;99.90
2907;DHT22;1463;51.070;16.998;2024-01-07T03:21:49;-0.80;99.90
2907;DHT22;1463;51.070;16.998;2024-01-07T03:24:16;-0.70;99.90
2907;DHT22;1463;51.070;16.998;2024-01-07T03:26:45;-0.70;99.90
2907;DHT22;1463;51.070;16.998;2024-01-07T03:29:11;-0.80;99.90
2907;DHT22;1463;51.070;16.998;2024-01-07T03:31:38;-1.10;99.90
2907;DHT22;1463;51.070;16.998;2024-01-07T03:34:06;-0.90;99.90
2907;DHT22;1463;51.070;16.998;2024-01-07T03:36:33;-0.80;99.90
2907;DHT22;1463;51.070;16.998;2024-01-07T03:38:59;-0.90;99.90
2907;DHT22;1463;51.070;16.998;2024-01-07T03:41:26;-0.90;99.90
2907;DHT22;1463;51.070;16.998;2024-01-07T03:43:53;-0.90;99.90
2907;DHT22;1463;51.070;16.998;2024-01-07T03:46:20;-0.90;99.90
2907;DHT22;1463;51.070;16.998;2024-01-07T03:48:46;-0.90;99.90
2907;DHT22;1463;51.070;16.998;2024-01-07T03:51:14;-0.80;99.90
2907;DHT22;1463;51.070;16.998;2024-01-07T03:53:41;-0.80;99.90
2907;DHT22;1463;51.070;16.998;2024-01-07T03:56:07;-0.80;99.90
2907;DHT22;1463;51.070;16.998;2024-01-07T03:58:34;-0.90;99.90
2907;DHT22;1463;51.070;16.998;2024-01-07T04:01:01;-1.10;99.90
2907;DHT22;1463;51.070;16.998;2024-01-07T04:03:28;-0.90;99.90
2907;DHT22;1463;51.070;16.998;2024-01-07T04:05:54;-0.80;99.90
2907;DHT22;1463;51.070;16.998;2024-01-07T04:08:23;-0.80;99.90
2907;DHT22;1463;51.070;16.998;2024-01-07T04:10:49;-0.70;99.90
2907;DHT22;1463;51.070;16.998;2024-01-07T04:13:16;-0.80;99.90
2907;DHT22;1463;51.070;16.998;2024-01-07T04:15:43;-0.80;99.90
2907;DHT22;1463;51.070;16.998;2024-01-07T04:18:09;-0.60;99.90
2907;DHT22;1463;51.070;16.998;2024-01-07T04:20:36;-0.80;99.90
2907;DHT22;1463;51.070;16.998;2024-01-07T04:23:03;-0.80;99.90
2907;DHT22;1463;51.070;16.998;2024-01-07T04:25:31;-0.70;99.90
2907;DHT22;1463;51.070;16.998;2024-01-07T04:27:57;-0.70;99.90
2907;DHT22;1463;51.070;16.998;2024-01-07T04:30:24;-0.70;99.90
2907;DHT22;1463;51.070;16.998;2024-01-07T04:32:51;-0.70;99.90
2907;DHT22;1463;51.070;16.998;2024-01-07T04:35:17;-0.80;99.90
2907;DHT22;1463;51.070;16.998;2024-01-07T04:37:44;-0.70;99.90
2907;DHT22;1463;51.070;16.998;2024-01-07T04:40:11;-0.90;99.90
2907;DHT22;1463;51.070;16.998;2024-01-07T04:42:39;-1.10;99.90
2907;DHT22;1463;51.070;16.998;2024-01-07T04:45:07;-0.80;99.90
2907;DHT22;1463;51.070;16.998;2024-01-07T04:47:34;-0.80;99.90
2907;DHT22;1463;51.070;16.998;2024-01-07T04:50:00;-0.70;99.90
2907;DHT22;1463;51.070;16.998;2024-01-07T04:52:27;-0.80;99.90
2907;DHT22;1463;51.070;16.998;2024-01-07T04:54:54;-0.90;99.90
2907;DHT22;1463;51.070;16.998;2024-01-07T04:57:21;-0.80;99.90
2907;DHT22;1463;51.070;16.998;2024-01-07T04:59:50;-0.90;99.90
2907;DHT22;1463;51.070;16.998;2024-01-07T05:02:17;-1.00;99.90
2907;DHT22;1463;51.070;16.998;2024-01-07T05:04:43;-1.00;99.90
2907;DHT22;1463;51.070;16.998;2024-01-07T05:07:10;-1.00;99.90
2907;DHT22;1463;51.070;16.998;2024-01-07T05:09:43;-1.00;99.90
2907;DHT22;1463;51.070;16.998;2024-01-07T05:12:09;-1.00;99.90
2907;DHT22;1463;51.070;16.998;2024-01-07T05:14:40;-1.10;99.90
2907;DHT22;1463;51.070;16.998;2024-01-07T05:17:09;-1.00;99.90
2907;DHT22;1463;51.070;16.998;2024-01-07T05:19:36;-1.00;99.90
2907;DHT22;1463;51.070;16.998;2024-01-07T05:22:02;-1.20;99.90
2907;DHT22;1463;51.070;16.998;2024-01-07T05:24:29;-1.10;99.90
2907;DHT22;1463;51.070;16.998;2024-01-07T05:26:56;-1.10;99.90
2907;DHT22;1463;51.070;16.998;2024-01-07T05:29:23;-1.00;99.90
2907;DHT22;1463;51.070;16.998;2024-01-07T05:31:49;-1.00;99.90
2907;DHT22;1463;51.070;16.998;2024-01-07T05:34:17;-1.20;99.90
2907;DHT22;1463;51.070;16.998;2024-01-07T05:36:44;-1.20;99.90
2907;DHT22;1463;51.070;16.998;2024-01-07T05:39:11;-1.20;99.90
2907;DHT22;1463;51.070;16.998;2024-01-07T05:41:37;-1.10;99.90
2907;DHT22;1463;51.070;16.998;2024-01-07T05:44:06;-1.10;99.90
2907;DHT22;1463;51.070;16.998;2024-01-07T05:46:33;-1.00;99.90
2907;DHT22;1463;51.070;16.998;2024-01-07T05:49:03;-1.00;99.90
2907;DHT22;1463;51.070;16.998;2024-01-07T05:51:33;-0.90;99.90
2907;DHT22;1463;51.070;16.998;2024-01-07T05:54:00;-1.00;99.90
2907;DHT22;1463;51.070;16.998;2024-01-07T05:56:30;-1.10;99.90
2907;DHT22;1463;51.070;16.998;2024-01-07T05:58:56;-1.00;99.90
2907;DHT22;1463;51.070;16.998;2024-01-07T06:01:23;-1.10;99.90
2907;DHT22;1463;51.070;16.998;2024-01-07T06:03:50;-1.00;99.90
2907;DHT22;1463;51.070;16.998;2024-01-07T06:06:17;-1.20;99.90
2907;DHT22;1463;51.070;16.998;2024-01-07T06:08:45;-1.20;99.90
2907;DHT22;1463;51.070;16.998;2024-01-07T06:11:11;-1.20;99.90
2907;DHT22;1463;51.070;16.998;2024-01-07T06:13:44;-1.10;99.90
2907;DHT22;1463;51.070;16.998;2024-01-07T06:16:11;-1.10;99.90
2907;DHT22;1463;51.070;16.998;2024-01-07T06:18:37;-1.30;99.90
2907;DHT22;1463;51.070;16.998;2024-01-07T06:21:07;-1.10;99.90
2907;DHT22;1463;51.070;16.998;2024-01-07T06:23:34;-1.20;99.90
2907;DHT22;1463;51.070;16.998;2024-01-07T06:26:04;-1.20;99.90
2907;DHT22;1463;51.070;16.998;2024-01-07T06:28:31;-1.20;99.90
2907;DHT22;1463;51.070;16.998;2024-01-07T06:30:58;-1.30;99.90
2907;DHT22;1463;51.070;16.998;2024-01-07T06:33:25;-1.20;99.90
2907;DHT22;1463;51.070;16.998;2024-01-07T06:35:53;-1.20;99.90
2907;DHT22;1463;51.070;16.998;2024-01-07T06:38:20;-1.30;99.90
2907;DHT22;1463;51.070;16.998;2024-01-07T06:40:46;-1.20;99.90
2907;DHT22;1463;51.070;16.998;2024-01-07T06:43:15;-1.40;99.90
2907;DHT22;1463;51.070;16.998;2024-01-07T06:45:47;-1.30;99.90
2907;DHT22;1463;51.070;16.998;2024-01-07T06:48:14;-1.40;99.90
2907;DHT22;1463;51.070;16.998;2024-01-07T06:50:41;-1.40;99.90
2907;DHT22;1463;51.070;16.998;2024-01-07T06:53:08;-1.30;99.90
2907;DHT22;1463;51.070;16.998;2024-01-07T06:55:35;-1.30;99.90
2907;DHT22;1463;51.070;16.998;2024-01-07T06:58:02;-1.30;99.90
2907;DHT22;1463;51.070;16.998;2024-01-07T07:00:30;-1.30;99.90
2907;DHT22;1463;51.070;16.998;2024-01-07T07:02:57;-1.30;99.90
2907;DHT22;1463;51.070;16.998;2024-01-07T07:05:25;-1.20;99.90
2907;DHT22;1463;51.070;16.998;2024-01-07T07:07:52;-1.10;99.90
2907;DHT22;1463;51.070;16.998;2024-01-07T07:10:19;-1.20;99.90
2907;DHT22;1463;51.070;16.998;2024-01-07T07:12:45;-1.30;99.90
2907;DHT22;1463;51.070;16.998;2024-01-07T07:15:12;-1.20;99.90
2907;DHT22;1463;51.070;16.998;2024-01-07T07:17:40;-1.40;99.90
2907;DHT22;1463;51.070;16.998;2024-01-07T07:20:07;-1.60;99.90
2907;DHT22;1463;51.070;16.998;2024-01-07T07:22:34;-1.60;99.90
2907;DHT22;1463;51.070;16.998;2024-01-07T07:25:04;-1.50;99.90
2907;DHT22;1463;51.070;16.998;2024-01-07T07:27:31;-1.40;99.90
2907;DHT22;1463;51.070;16.998;2024-01-07T07:29:58;-1.40;99.90
2907;DHT22;1463;51.070;16.998;2024-01-07T07:32:25;-1.20;99.90
2907;DHT22;1463;51.070;16.998;2024-01-07T07:34:53;-1.20;99.90
2907;DHT22;1463;51.070;16.998;2024-01-07T07:37:19;-1.40;99.90
2907;DHT22;1463;51.070;16.998;2024-01-07T07:39:46;-1.20;99.90
2907;DHT22;1463;51.070;16.998;2024-01-07T07:42:13;-1.20;99.90
2907;DHT22;1463;51.070;16.998;2024-01-07T07:44:39;-1.30;99.90
2907;DHT22;1463;51.070;16.998;2024-01-07T07:47:06;-1.20;99.90
2907;DHT22;1463;51.070;16.998;2024-01-07T07:49:33;-1.30;99.90
2907;DHT22;1463;51.070;16.998;2024-01-07T07:52:02;-1.30;99.90
2907;DHT22;1463;51.070;16.998;2024-01-07T07:54:29;-1.50;99.90
2907;DHT22;1463;51.070;16.998;2024-01-07T07:56:56;-1.50;99.90
2907;DHT22;1463;51.070;16.998;2024-01-07T07:59:22;-1.30;99.90
2907;DHT22;1463;51.070;16.998;2024-01-07T08:01:49;-1.30;99.90
2907;DHT22;1463;51.070;16.998;2024-01-07T08:04:16;-1.30;99.90
2907;DHT22;1463;51.070;16.998;2024-01-07T08:06:42;-1.30;99.90
2907;DHT22;1463;51.070;16.998;2024-01-07T08:09:11;-1.20;99.90
2907;DHT22;1463;51.070;16.998;2024-01-07T08:11:38;-1.20;99.90
2907;DHT22;1463;51.070;16.998;2024-01-07T08:14:05;-1.20;99.90
2907;DHT22;1463;51.070;16.998;2024-01-07T08:16:32;-1.10;99.90
2907;DHT22;1463;51.070;16.998;2024-01-07T08:18:59;-1.20;99.90
2907;DHT22;1463;51.070;16.998;2024-01-07T08:21:25;-1.20;99.90
2907;DHT22;1463;51.070;16.998;2024-01-07T08:23:52;-1.30;99.90
2907;DHT22;1463;51.070;16.998;2024-01-07T08:26:21;-1.20;99.90
2907;DHT22;1463;51.070;16.998;2024-01-07T08:28:48;-1.00;99.90
2907;DHT22;1463;51.070;16.998;2024-01-07T08:31:15;-0.90;99.90
2907;DHT22;1463;51.070;16.998;2024-01-07T08:33:42;-1.00;99.90
2907;DHT22;1463;51.070;16.998;2024-01-07T08:36:08;-1.00;99.90
2907;DHT22;1463;51.070;16.998;2024-01-07T08:38:35;-1.00;99.90
2907;DHT22;1463;51.070;16.998;2024-01-07T08:41:02;-1.10;99.90
2907;DHT22;1463;51.070;16.998;2024-01-07T08:43:32;-1.40;99.90
2907;DHT22;1463;51.070;16.998;2024-01-07T08:45:59;-1.20;99.90
2907;DHT22;1463;51.070;16.998;2024-01-07T08:48:26;-1.30;99.90
2907;DHT22;1463;51.070;16.998;2024-01-07T08:50:52;-1.20;99.90
2907;DHT22;1463;51.070;16.998;2024-01-07T08:53:19;-1.10;99.90
2907;DHT22;1463;51.070;16.998;2024-01-07T08:55:49;-1.20;99.90
2907;DHT22;1463;51.070;16.998;2024-01-07T08:58:16;-1.10;99.90
2907;DHT22;1463;51.070;16.998;2024-01-07T09:00:44;-1.00;99.90
2907;DHT22;1463;51.070;16.998;2024-01-07T09:03:11;-1.10;99.90
2907;DHT22;1463;51.070;16.998;2024-01-07T09:05:38;-0.90;99.90
2907;DHT22;1463;51.070;16.998;2024-01-07T09:08:05;-0.80;99.90
2907;DHT22;1463;51.070;16.998;2024-01-07T09:10:32;-0.80;99.90
2907;DHT22;1463;51.070;16.998;2024-01-07T09:13:02;-0.90;99.90
2907;DHT22;1463;51.070;16.998;2024-01-07T09:15:29;-0.70;99.90
2907;DHT22;1463;51.070;16.998;2024-01-07T09:17:57;-0.80;99.90
2907;DHT22;1463;51.070;16.998;2024-01-07T09:20:24;-0.80;99.90
2907;DHT22;1463;51.070;16.998;2024-01-07T09:22:51;-0.70;99.90
2907;DHT22;1463;51.070;16.998;2024-01-07T09:25:17;-0.60;99.90
2907;DHT22;1463;51.070;16.998;2024-01-07T09:27:44;-0.40;99.90
2907;DHT22;1463;51.070;16.998;2024-01-07T09:30:11;-0.50;99.90
2907;DHT22;1463;51.070;16.998;2024-01-07T09:32:40;-0.50;99.90
2907;DHT22;1463;51.070;16.998;2024-01-07T09:35:08;-0.60;99.90
2907;DHT22;1463;51.070;16.998;2024-01-07T09:37:35;-0.70;99.90
2907;DHT22;1463;51.070;16.998;2024-01-07T09:40:02;-1.00;99.90
2907;DHT22;1463;51.070;16.998;2024-01-07T09:42:29;-0.70;99.90
2907;DHT22;1463;51.070;16.998;2024-01-07T09:44:56;-0.90;99.90
2907;DHT22;1463;51.070;16.998;2024-01-07T09:47:24;-0.90;99.90
2907;DHT22;1463;51.070;16.998;2024-01-07T09:49:51;-0.70;99.90
2907;DHT22;1463;51.070;16.998;2024-01-07T09:52:20;-0.60;99.90
2907;DHT22;1463;51.070;16.998;2024-01-07T09:54:51;-0.60;99.90
2907;DHT22;1463;51.070;16.998;2024-01-07T09:57:18;-0.60;99.90
2907;DHT22;1463;51.070;16.998;2024-01-07T09:59:45;-0.60;99.90
2907;DHT22;1463;51.070;16.998;2024-01-07T10:02:12;-0.60;99.90
2907;DHT22;1463;51.070;16.998;2024-01-07T10:04:40;-0.50;99.90
2907;DHT22;1463;51.070;16.998;2024-01-07T10:07:06;-0.70;99.90
2907;DHT22;1463;51.070;16.998;2024-01-07T10:09:34;-0.70;99.90
2907;DHT22;1463;51.070;16.998;2024-01-07T10:12:01;-0.70;99.90
2907;DHT22;1463;51.070;16.998;2024-01-07T10:14:29;-0.70;99.90
2907;DHT22;1463;51.070;16.998;2024-01-07T10:16:55;-0.70;99.90
2907;DHT22;1463;51.070;16.998;2024-01-07T10:19:24;-0.60;99.90
2907;DHT22;1463;51.070;16.998;2024-01-07T10:22:01;-0.80;99.90
2907;DHT22;1463;51.070;16.998;2024-01-07T10:24:37;-0.80;99.90
2907;DHT22;1463;51.070;16.998;2024-01-07T10:27:05;-0.80;99.90
2907;DHT22;1463;51.070;16.998;2024-01-07T10:29:32;-1.00;99.90
2907;DHT22;1463;51.070;16.998;2024-01-07T10:31:59;-1.30;99.90
2907;DHT22;1463;51.070;16.998;2024-01-07T10:34:29;-1.20;99.90
2907;DHT22;1463;51.070;16.998;2024-01-07T10:36:56;-1.10;99.90
2907;DHT22;1463;51.070;16.998;2024-01-07T10:39:25;-1.20;99.90
2907;DHT22;1463;51.070;16.998;2024-01-07T10:41:54;-1.20;99.90
2907;DHT22;1463;51.070;16.998;2024-01-07T10:44:25;-1.40;99.90
2907;DHT22;1463;51.070;16.998;2024-01-07T10:46:54;-1.50;99.90
2907;DHT22;1463;51.070;16.998;2024-01-07T10:49:22;-1.30;99.90
2907;DHT22;1463;51.070;16.998;2024-01-07T10:52:02;-1.30;99.90
2907;DHT22;1463;51.070;16.998;2024-01-07T10:54:30;-1.30;99.90
2907;DHT22;1463;51.070;16.998;2024-01-07T10:57:04;-1.40;99.90
2907;DHT22;1463;51.070;16.998;2024-01-07T10:59:36;-1.50;99.90
2907;DHT22;1463;51.070;16.998;2024-01-07T11:02:03;-1.40;99.90
2907;DHT22;1463;51.070;16.998;2024-01-07T11:04:34;-1.40;99.90
2907;DHT22;1463;51.070;16.998;2024-01-07T11:07:12;-1.40;99.90
2907;DHT22;1463;51.070;16.998;2024-01-07T11:09:51;-1.50;99.90
2907;DHT22;1463;51.070;16.998;2024-01-07T11:12:22;-1.40;99.90
2907;DHT22;1463;51.070;16.998;2024-01-07T11:14:49;-1.70;99.90
2907;DHT22;1463;51.070;16.998;2024-01-07T11:17:40;-1.50;99.90
2907;DHT22;1463;51.070;16.998;2024-01-07T11:20:13;-1.40;99.90
2907;DHT22;1463;51.070;16.998;2024-01-07T11:22:40;-1.20;99.90
2907;DHT22;1463;51.070;16.998;2024-01-07T11:25:28;-1.20;99.90
2907;DHT22;1463;51.070;16.998;2024-01-07T11:27:57;-1.20;99.90
2907;DHT22;1463;51.070;16.998;2024-01-07T11:30:24;-1.20;99.90
2907;DHT22;1463;51.070;16.998;2024-01-07T11:32:56;-1.50;99.90
2907;DHT22;1463;51.070;16.998;2024-01-07T11:35:55;-1.40;99.90
2907;DHT22;1463;51.070;16.998;2024-01-07T11:38:22;-1.40;99.90
2907;DHT22;1463;51.070;16.998;2024-01-07T11:40:50;-1.50;99.90
2907;DHT22;1463;51.070;16.998;2024-01-07T11:43:20;-1.60;99.90
2907;DHT22;1463;51.070;16.998;2024-01-07T11:45:49;-1.80;99.90
2907;DHT22;1463;51.070;16.998;2024-01-07T11:48:17;-1.60;99.90
2907;DHT22;1463;51.070;16.998;2024-01-07T11:50:44;-1.60;99.90
2907;DHT22;1463;51.070;16.998;2024-01-07T11:53:11;-1.60;99.90
2907;DHT22;1463;51.070;16.998;2024-01-07T11:55:38;-1.50;99.90
2907;DHT22;1463;51.070;16.998;2024-01-07T11:58:05;-1.30;99.90
2907;DHT22;1463;51.070;16.998;2024-01-07T12:00:33;-1.40;99.90
2907;DHT22;1463;51.070;16.998;2024-01-07T12:03:00;-1.60;99.90
2907;DHT22;1463;51.070;16.998;2024-01-07T12:05:27;-1.50;99.90
2907;DHT22;1463;51.070;16.998;2024-01-07T12:07:54;-1.60;99.90
2907;DHT22;1463;51.070;16.998;2024-01-07T12:10:20;-1.70;99.90
2907;DHT22;1463;51.070;16.998;2024-01-07T12:12:48;-1.70;99.90
2907;DHT22;1463;51.070;16.998;2024-01-07T12:15:16;-2.00;99.90
2907;DHT22;1463;51.070;16.998;2024-01-07T12:17:54;-1.90;99.90
2907;DHT22;1463;51.070;16.998;2024-01-07T12:20:21;-1.60;99.90
2907;DHT22;1463;51.070;16.998;2024-01-07T12:22:48;-1.70;99.90
2907;DHT22;1463;51.070;16.998;2024-01-07T12:25:21;-1.50;99.90
2907;DHT22;1463;51.070;16.998;2024-01-07T12:27:48;-1.40;99.90
2907;DHT22;1463;51.070;16.998;2024-01-07T12:30:18;-1.40;99.90
2907;DHT22;1463;51.070;16.998;2024-01-07T12:32:51;-1.40;99.90
2907;DHT22;1463;51.070;16.998;2024-01-07T12:35:18;-1.40;99.90
2907;DHT22;1463;51.070;16.998;2024-01-07T12:37:45;-1.40;99.90
2907;DHT22;1463;51.070;16.998;2024-01-07T12:40:12;-1.50;99.90
2907;DHT22;1463;51.070;16.998;2024-01-07T12:42:39;-1.50;99.90
2907;DHT22;1463;51.070;16.998;2024-01-07T12:45:10;-1.60;99.90
2907;DHT22;1463;51.070;16.998;2024-01-07T12:47:37;-1.80;99.90
2907;DHT22;1463;51.070;16.998;2024-01-07T12:50:07;-2.00;99.90
2907;DHT22;1463;51.070;16.998;2024-01-07T12:52:35;-2.00;99.90
2907;DHT22;1463;51.070;16.998;2024-01-07T12:55:03;-1.90;99.90
2907;DHT22;1463;51.070;16.998;2024-01-07T12:57:29;-1.70;99.90
2907;DHT22;1463;51.070;16.998;2024-01-07T12:59:56;-1.60;99.90
2907;DHT22;1463;51.070;16.998;2024-01-07T13:02:23;-1.60;99.90
2907;DHT22;1463;51.070;16.998;2024-01-07T13:04:50;-1.70;99.90
2907;DHT22;1463;51.070;16.998;2024-01-07T13:07:18;-1.70;99.90
2907;DHT22;1463;51.070;16.998;2024-01-07T13:09:44;-1.60;99.90
2907;DHT22;1463;51.070;16.998;2024-01-07T13:12:12;-1.70;99.90
2907;DHT22;1463;51.070;16.998;2024-01-07T13:14:39;-1.80;99.90
2907;DHT22;1463;51.070;16.998;2024-01-07T13:17:07;-1.90;99.90
2907;DHT22;1463;51.070;16.998;2024-01-07T13:19:35;-1.90;99.90
2907;DHT22;1463;51.070;16.998;2024-01-07T13:22:01;-1.90;99.90
2907;DHT22;1463;51.070;16.998;2024-01-07T13:24:30;-1.90;99.90
2907;DHT22;1463;51.070;16.998;2024-01-07T13:26:56;-1.90;99.90
2907;DHT22;1463;51.070;16.998;2024-01-07T13:29:23;-2.00;99.90
2907;DHT22;1463;51.070;16.998;2024-01-07T13:31:50;-2.00;99.90
2907;DHT22;1463;51.070;16.998;2024-01-07T13:34:17;-1.90;99.90
2907;DHT22;1463;51.070;16.998;2024-01-07T13:36:44;-1.90;99.90
2907;DHT22;1463;51.070;16.998;2024-01-07T13:39:11;-1.90;99.90
2907;DHT22;1463;51.070;16.998;2024-01-07T13:41:43;-2.00;99.90
2907;DHT22;1463;51.070;16.998;2024-01-07T13:44:10;-2.20;99.90
2907;DHT22;1463;51.070;16.998;2024-01-07T13:46:43;-2.10;99.90
2907;DHT22;1463;51.070;16.998;2024-01-07T13:49:10;-2.00;99.90
2907;DHT22;1463;51.070;16.998;2024-01-07T13:51:38;-1.90;99.90
2907;DHT22;1463;51.070;16.998;2024-01-07T13:54:05;-2.00;99.90
2907;DHT22;1463;51.070;16.998;2024-01-07T13:56:36;-2.00;99.90
2907;DHT22;1463;51.070;16.998;2024-01-07T13:59:09;-1.90;99.90
2907;DHT22;1463;51.070;16.998;2024-01-07T14:01:36;-1.90;99.90
2907;DHT22;1463;51.070;16.998;2024-01-07T14:04:03;-2.20;99.90
2907;DHT22;1463;51.070;16.998;2024-01-07T14:06:29;-2.30;99.90
2907;DHT22;1463;51.070;16.998;2024-01-07T14:08:57;-2.20;99.90
2907;DHT22;1463;51.070;16.998;2024-01-07T14:11:24;-2.20;99.90
2907;DHT22;1463;51.070;16.998;2024-01-07T14:13:52;-2.20;99.70
2907;DHT22;1463;51.070;16.998;2024-01-07T14:16:20;-2.10;99.90
2907;DHT22;1463;51.070;16.998;2024-01-07T14:18:46;-2.20;99.90
2907;DHT22;1463;51.070;16.998;2024-01-07T14:21:13;-2.10;99.90
2907;DHT22;1463;51.070;16.998;2024-01-07T14:23:40;-2.20;99.70
2907;DHT22;1463;51.070;16.998;2024-01-07T14:26:06;-2.30;99.70
2907;DHT22;1463;51.070;16.998;2024-01-07T14:28:33;-2.40;99.90
2907;DHT22;1463;51.070;16.998;2024-01-07T14:31:01;-2.40;99.80
2907;DHT22;1463;51.070;16.998;2024-01-07T14:33:30;-3.00;99.90
2907;DHT22;1463;51.070;16.998;2024-01-07T14:35:56;-2.90;99.90
2907;DHT22;1463;51.070;16.998;2024-01-07T14:38:23;-2.80;99.90
2907;DHT22;1463;51.070;16.998;2024-01-07T14:40:50;-2.70;99.90
2907;DHT22;1463;51.070;16.998;2024-01-07T14:43:19;-2.90;99.90
2907;DHT22;1463;51.070;16.998;2024-01-07T14:45:46;-2.70;99.90
2907;DHT22;1463;51.070;16.998;2024-01-07T14:48:14;-2.70;99.90
2907;DHT22;1463;51.070;16.998;2024-01-07T14:50:42;-2.70;99.90
2907;DHT22;1463;51.070;16.998;2024-01-07T14:53:13;-2.80;99.90
2907;DHT22;1463;51.070;16.998;2024-01-07T14:55:39;-2.90;99.90
2907;DHT22;1463;51.070;16.998;2024-01-07T14:58:06;-2.90;99.90
2907;DHT22;1463;51.070;16.998;2024-01-07T15:00:32;-3.30;99.90
2907;DHT22;1463;51.070;16.998;2024-01-07T15:02:59;-3.20;99.90
2907;DHT22;1463;51.070;16.998;2024-01-07T15:05:26;-3.20;99.90
2907;DHT22;1463;51.070;16.998;2024-01-07T15:07:54;-3.10;99.90
2907;DHT22;1463;51.070;16.998;2024-01-07T15:10:20;-3.30;99.90
2907;DHT22;1463;51.070;16.998;2024-01-07T15:12:47;-3.30;99.90
2907;DHT22;1463;51.070;16.998;2024-01-07T15:15:15;-3.30;99.90
2907;DHT22;1463;51.070;16.998;2024-01-07T15:17:42;-3.20;99.90
2907;DHT22;1463;51.070;16.998;2024-01-07T15:20:11;-3.30;99.90
2907;DHT22;1463;51.070;16.998;2024-01-07T15:22:38;-3.20;99.90
2907;DHT22;1463;51.070;16.998;2024-01-07T15:25:07;-3.40;99.90
2907;DHT22;1463;51.070;16.998;2024-01-07T15:27:36;-3.30;99.90
2907;DHT22;1463;51.070;16.998;2024-01-07T15:30:03;-3.50;99.90
2907;DHT22;1463;51.070;16.998;2024-01-07T15:32:30;-3.60;99.90
2907;DHT22;1463;51.070;16.998;2024-01-07T15:34:57;-3.60;99.90
2907;DHT22;1463;51.070;16.998;2024-01-07T15:37:30;-3.40;99.90
2907;DHT22;1463;51.070;16.998;2024-01-07T15:39:56;-3.30;99.90
2907;DHT22;1463;51.070;16.998;2024-01-07T15:42:24;-3.30;99.90
2907;DHT22;1463;51.070;16.998;2024-01-07T15:44:51;-3.30;99.90
2907;DHT22;1463;51.070;16.998;2024-01-07T15:47:18;-3.30;99.90
2907;DHT22;1463;51.070;16.998;2024-01-07T15:49:47;-3.60;99.90